sensor_id;sensor_type;location;lat;lon;timestamp;pressure;altitude;pressure_sealevel;temperature;humidity
53041;BME280;39326;42.650;23.248;2023-07-08T00:00:52;92930.16;;;17.54;79.66
53041;BME280;39326;42.650;23.248;2023-07-08T00:03:19;92926.22;;;17.58;79.36
53041;BME280;39326;42.650;23.248;2023-07-08T00:05:55;92928.47;;;17.44;79.90
53041;BME280;39326;42.650;23.248;2023-07-08T00:08:21;92924.22;;;17.43;79.51
53041;BME280;39326;42.650;23.248;2023-07-08T00:10:47;92928.22;;;17.54;78.96
53041;BME280;39326;42.650;23.248;2023-07-08T00:13:12;92928.66;;;17.53;79.68
53041;BME280;39326;42.650;23.248;2023-07-08T00:15:39;92909.78;;;17.53;79.31
53041;BME280;39326;42.650;23.248;2023-07-08T00:18:16;92905.28;;;17.46;80.39
53041;BME280;39326;42.650;23.248;2023-07-08T00:20:47;92901.72;;;17.33;80.61
53041;BME280;39326;42.650;23.248;2023-07-08T00:23:14;92893.81;;;17.42;79.64
53041;BME280;39326;42.650;23.248;2023-07-08T00:25:40;92892.75;;;17.56;78.99
53041;BME280;39326;42.650;23.248;2023-07-08T00:28:18;92893.66;;;17.49;79.63
53041;BME280;39326;42.650;23.248;2023-07-08T00:30:44;92894.97;;;17.41;79.87
53041;BME280;39326;42.650;23.248;2023-07-08T00:33:10;92895.31;;;17.43;79.58
53041;BME280;39326;42.650;23.248;2023-07-08T00:35:39;92906.94;;;17.40;79.78
53041;BME280;39326;42.650;23.248;2023-07-08T00:40:51;92897.50;;;17.32;80.38
53041;BME280;39326;42.650;23.248;2023-07-08T00:43:19;92895.75;;;17.22;80.53
53041;BME280;39326;42.650;23.248;2023-07-08T00:45:51;92888.38;;;17.26;80.06
53041;BME280;39326;42.650;23.248;2023-07-08T00:48:25;92886.16;;;17.21;80.47
53041;BME280;39326;42.650;23.248;2023-07-08T00:50:53;92876.06;;;17.05;81.07
53041;BME280;39326;42.650;23.248;2023-07-08T00:55:49;92873.66;;;17.11;80.73
53041;BME280;39326;42.650;23.248;2023-07-08T00:58:17;92877.25;;;17.04;81.53
53041;BME280;39326;42.650;23.248;2023-07-08T01:00:44;92880.69;;;17.04;81.18
53041;BME280;39326;42.650;23.248;2023-07-08T01:03:10;92870.28;;;17.06;81.11
53041;BME280;39326;42.650;23.248;2023-07-08T01:05:36;92876.75;;;17.09;81.27
53041;BME280;39326;42.650;23.248;2023-07-08T01:08:05;92876.16;;;17.01;81.60
53041;BME280;39326;42.650;23.248;2023-07-08T01:10:44;92870.44;;;16.99;81.76
53041;BME280;39326;42.650;23.248;2023-07-08T01:13:12;92869.63;;;16.99;81.63
53041;BME280;39326;42.650;23.248;2023-07-08T01:15:42;92875.13;;;16.95;81.90
53041;BME280;39326;42.650;23.248;2023-07-08T01:18:12;92878.56;;;16.96;82.25
53041;BME280;39326;42.650;23.248;2023-07-08T01:20:42;92875.84;;;16.76;82.86
53041;BME280;39326;42.650;23.248;2023-07-08T01:23:10;92865.69;;;16.64;83.64
53041;BME280;39326;42.650;23.248;2023-07-08T01:25:37;92869.84;;;16.68;83.29
53041;BME280;39326;42.650;23.248;2023-07-08T01:28:03;92865.88;;;16.73;82.83
53041;BME280;39326;42.650;23.248;2023-07-08T01:30:30;92862.78;;;16.74;82.98
53041;BME280;39326;42.650;23.248;2023-07-08T01:33:05;92865.13;;;16.72;82.93
53041;BME280;39326;42.650;23.248;2023-07-08T01:35:33;92864.44;;;16.68;83.05
53041;BME280;39326;42.650;23.248;2023-07-08T01:38:01;92858.91;;;16.75;82.33
53041;BME280;39326;42.650;23.248;2023-07-08T01:40:31;92864.31;;;16.75;82.22
53041;BME280;39326;42.650;23.248;2023-07-08T01:42:58;92857.59;;;16.84;81.67
53041;BME280;39326;42.650;23.248;2023-07-08T01:45:28;92862.72;;;16.78;82.38
53041;BME280;39326;42.650;23.248;2023-07-08T01:48:14;92856.78;;;16.87;82.10
53041;BME280;39326;42.650;23.248;2023-07-08T01:53:20;92852.81;;;16.95;81.26
53041;BME280;39326;42.650;23.248;2023-07-08T01:55:47;92849.19;;;16.82;82.04
53041;BME280;39326;42.650;23.248;2023-07-08T01:58:13;92847.31;;;16.78;82.45
53041;BME280;39326;42.650;23.248;2023-07-08T02:00:38;92854.28;;;16.76;82.24
53041;BME280;39326;42.650;23.248;2023-07-08T02:03:04;92851.66;;;16.72;82.60
53041;BME280;39326;42.650;23.248;2023-07-08T02:05:30;92839.38;;;16.71;82.37
53041;BME280;39326;42.650;23.248;2023-07-08T02:07:56;92842.63;;;16.63;82.98
53041;BME280;39326;42.650;23.248;2023-07-08T02:10:22;92850.13;;;16.71;82.62
53041;BME280;39326;42.650;23.248;2023-07-08T02:12:47;92843.28;;;16.67;82.50
53041;BME280;39326;42.650;23.248;2023-07-08T02:15:13;92848.16;;;16.75;81.99
53041;BME280;39326;42.650;23.248;2023-07-08T02:17:38;92855.06;;;16.76;82.11
53041;BME280;39326;42.650;23.248;2023-07-08T02:20:04;92862.84;;;16.71;82.44
53041;BME280;39326;42.650;23.248;2023-07-08T02:22:30;92865.53;;;16.71;82.54
53041;BME280;39326;42.650;23.248;2023-07-08T02:24:56;92868.09;;;16.78;82.14
53041;BME280;39326;42.650;23.248;2023-07-08T02:27:22;92873.00;;;16.63;82.50
53041;BME280;39326;42.650;23.248;2023-07-08T02:29:47;92875.47;;;16.54;82.75
53041;BME280;39326;42.650;23.248;2023-07-08T02:32:13;92874.94;;;16.63;82.25
53041;BME280;39326;42.650;23.248;2023-07-08T02:34:38;92869.19;;;16.61;82.37
53041;BME280;39326;42.650;23.248;2023-07-08T02:37:04;92870.66;;;16.65;81.76
53041;BME280;39326;42.650;23.248;2023-07-08T02:39:30;92869.84;;;16.68;81.43
53041;BME280;39326;42.650;23.248;2023-07-08T02:41:55;92869.03;;;16.68;81.51
53041;BME280;39326;42.650;23.248;2023-07-08T02:44:22;92875.22;;;16.68;81.40
53041;BME280;39326;42.650;23.248;2023-07-08T02:46:48;92881.84;;;16.64;81.74
53041;BME280;39326;42.650;23.248;2023-07-08T02:49:14;92890.25;;;16.66;81.74
53041;BME280;39326;42.650;23.248;2023-07-08T02:51:40;92886.00;;;16.68;81.70
53041;BME280;39326;42.650;23.248;2023-07-08T02:54:06;92893.38;;;16.64;81.78
53041;BME280;39326;42.650;23.248;2023-07-08T02:56:31;92900.34;;;16.62;82.02
53041;BME280;39326;42.650;23.248;2023-07-08T02:58:57;92895.16;;;16.51;82.49
53041;BME280;39326;42.650;23.248;2023-07-08T03:01:23;92900.41;;;16.58;82.32
53041;BME280;39326;42.650;23.248;2023-07-08T03:03:49;92890.84;;;16.53;82.73
53041;BME280;39326;42.650;23.248;2023-07-08T03:06:15;92907.63;;;16.61;82.08
53041;BME280;39326;42.650;23.248;2023-07-08T03:08:41;92904.31;;;16.53;82.43
53041;BME280;39326;42.650;23.248;2023-07-08T03:11:08;92897.13;;;16.47;82.99
53041;BME280;39326;42.650;23.248;2023-07-08T03:13:34;92900.09;;;16.52;83.13
53041;BME280;39326;42.650;23.248;2023-07-08T03:16:01;92898.88;;;16.57;82.81
53041;BME280;39326;42.650;23.248;2023-07-08T03:18:28;92895.59;;;16.69;81.96
53041;BME280;39326;42.650;23.248;2023-07-08T03:20:55;92888.59;;;16.72;81.78
53041;BME280;39326;42.650;23.248;2023-07-08T03:23:22;92882.41;;;16.75;81.73
53041;BME280;39326;42.650;23.248;2023-07-08T03:25:47;92880.34;;;16.83;80.82
53041;BME280;39326;42.650;23.248;2023-07-08T03:28:14;92879.72;;;16.75;81.41
53041;BME280;39326;42.650;23.248;2023-07-08T03:30:44;92888.34;;;16.86;80.60
53041;BME280;39326;42.650;23.248;2023-07-08T03:33:11;92879.38;;;16.93;80.52
53041;BME280;39326;42.650;23.248;2023-07-08T03:35:37;92882.50;;;16.91;80.49
53041;BME280;39326;42.650;23.248;2023-07-08T03:38:04;92884.00;;;16.92;80.33
53041;BME280;39326;42.650;23.248;2023-07-08T03:40:29;92880.84;;;16.97;80.01
53041;BME280;39326;42.650;23.248;2023-07-08T03:42:55;92879.19;;;17.03;79.94
53041;BME280;39326;42.650;23.248;2023-07-08T03:45:21;92874.28;;;16.98;80.58
53041;BME280;39326;42.650;23.248;2023-07-08T03:47:46;92881.13;;;17.03;80.30
53041;BME280;39326;42.650;23.248;2023-07-08T03:50:24;92880.22;;;17.10;79.84
53041;BME280;39326;42.650;23.248;2023-07-08T03:52:51;92878.91;;;17.18;79.35
53041;BME280;39326;42.650;23.248;2023-07-08T03:55:18;92865.94;;;17.13;79.25
53041;BME280;39326;42.650;23.248;2023-07-08T03:57:44;92863.50;;;17.18;78.60
53041;BME280;39326;42.650;23.248;2023-07-08T04:00:11;92862.19;;;17.06;79.52
53041;BME280;39326;42.650;23.248;2023-07-08T04:02:41;92874.00;;;17.13;79.40
53041;BME280;39326;42.650;23.248;2023-07-08T04:05:13;92869.38;;;17.13;79.53
53041;BME280;39326;42.650;23.248;2023-07-08T04:07:39;92869.28;;;17.17;79.47
53041;BME280;39326;42.650;23.248;2023-07-08T04:10:05;92877.31;;;17.20;79.29
53041;BME280;39326;42.650;23.248;2023-07-08T04:12:31;92871.19;;;17.36;78.69
53041;BME280;39326;42.650;23.248;2023-07-08T04:14:56;92884.69;;;17.36;79.09
53041;BME280;39326;42.650;23.248;2023-07-08T04:17:22;92875.44;;;17.37;79.03
53041;BME280;39326;42.650;23.248;2023-07-08T04:19:49;92875.78;;;17.39;78.76
53041;BME280;39326;42.650;23.248;2023-07-08T04:22:15;92879.06;;;17.47;78.63
53041;BME280;39326;42.650;23.248;2023-07-08T04:24:40;92866.06;;;17.42;78.59
53041;BME280;39326;42.650;23.248;2023-07-08T04:27:12;92863.25;;;17.29;78.52
53041;BME280;39326;42.650;23.248;2023-07-08T04:29:38;92885.75;;;17.22;79.42
53041;BME280;39326;42.650;23.248;2023-07-08T04:32:05;92885.69;;;17.26;79.18
53041;BME280;39326;42.650;23.248;2023-07-08T04:34:30;92889.03;;;17.30;79.86
53041;BME280;39326;42.650;23.248;2023-07-08T04:36:56;92888.41;;;17.42;79.42
53041;BME280;39326;42.650;23.248;2023-07-08T04:39:22;92885.97;;;17.48;79.47
53041;BME280;39326;42.650;23.248;2023-07-08T04:41:47;92895.47;;;17.56;78.81
53041;BME280;39326;42.650;23.248;2023-07-08T04:44:13;92892.25;;;17.61;78.14
53041;BME280;39326;42.650;23.248;2023-07-08T04:46:48;92882.16;;;17.65;78.06
53041;BME280;39326;42.650;23.248;2023-07-08T04:49:16;92892.03;;;17.72;77.62
53041;BME280;39326;42.650;23.248;2023-07-08T04:51:42;92881.84;;;17.79;77.35
53041;BME280;39326;42.650;23.248;2023-07-08T04:54:09;92886.16;;;17.93;77.24
53041;BME280;39326;42.650;23.248;2023-07-08T04:59:02;92889.38;;;17.88;77.53
53041;BME280;39326;42.650;23.248;2023-07-08T05:01:28;92900.59;;;18.03;76.82
53041;BME280;39326;42.650;23.248;2023-07-08T05:03:54;92898.72;;;18.00;77.01
53041;BME280;39326;42.650;23.248;2023-07-08T05:06:20;92916.13;;;17.99;77.47
53041;BME280;39326;42.650;23.248;2023-07-08T05:08:46;92906.50;;;17.98;76.85
53041;BME280;39326;42.650;23.248;2023-07-08T05:11:11;92917.88;;;18.05;76.79
53041;BME280;39326;42.650;23.248;2023-07-08T05:13:37;92909.88;;;18.02;76.49
53041;BME280;39326;42.650;23.248;2023-07-08T05:16:03;92906.84;;;18.00;76.39
53041;BME280;39326;42.650;23.248;2023-07-08T05:18:29;92908.22;;;18.08;75.99
53041;BME280;39326;42.650;23.248;2023-07-08T05:20:56;92916.47;;;18.17;75.99
53041;BME280;39326;42.650;23.248;2023-07-08T05:23:22;92911.25;;;18.26;75.42
53041;BME280;39326;42.650;23.248;2023-07-08T05:25:47;92910.16;;;18.40;74.88
53041;BME280;39326;42.650;23.248;2023-07-08T05:28:13;92907.94;;;18.51;74.82
53041;BME280;39326;42.650;23.248;2023-07-08T05:30:42;92913.16;;;18.58;74.48
53041;BME280;39326;42.650;23.248;2023-07-08T05:33:09;92910.78;;;18.60;73.64
53041;BME280;39326;42.650;23.248;2023-07-08T05:35:34;92914.78;;;18.72;72.80
53041;BME280;39326;42.650;23.248;2023-07-08T05:38:01;92918.16;;;18.76;72.76
53041;BME280;39326;42.650;23.248;2023-07-08T05:40:26;92918.13;;;18.60;72.89
53041;BME280;39326;42.650;23.248;2023-07-08T05:42:52;92920.50;;;18.58;72.74
53041;BME280;39326;42.650;23.248;2023-07-08T05:45:18;92928.47;;;18.65;73.14
53041;BME280;39326;42.650;23.248;2023-07-08T05:47:43;92930.47;;;18.61;73.46
53041;BME280;39326;42.650;23.248;2023-07-08T05:50:09;92942.31;;;18.67;74.06
53041;BME280;39326;42.650;23.248;2023-07-08T05:52:34;92937.47;;;18.42;74.19
53041;BME280;39326;42.650;23.248;2023-07-08T05:55:00;92936.31;;;18.27;74.38
53041;BME280;39326;42.650;23.248;2023-07-08T05:57:26;92941.28;;;18.28;74.78
53041;BME280;39326;42.650;23.248;2023-07-08T05:59:52;92929.72;;;18.28;74.82
53041;BME280;39326;42.650;23.248;2023-07-08T06:02:18;92936.31;;;18.27;74.50
53041;BME280;39326;42.650;23.248;2023-07-08T06:04:47;92941.88;;;18.36;74.49
53041;BME280;39326;42.650;23.248;2023-07-08T06:07:12;92943.75;;;18.39;73.94
53041;BME280;39326;42.650;23.248;2023-07-08T06:09:38;92950.06;;;18.32;73.80
53041;BME280;39326;42.650;23.248;2023-07-08T06:12:04;92949.72;;;18.30;74.16
53041;BME280;39326;42.650;23.248;2023-07-08T06:14:30;92941.53;;;18.34;73.83
53041;BME280;39326;42.650;23.248;2023-07-08T06:16:58;92949.97;;;18.36;74.13
53041;BME280;39326;42.650;23.248;2023-07-08T06:19:23;92949.97;;;18.36;73.75
53041;BME280;39326;42.650;23.248;2023-07-08T06:21:49;92950.31;;;18.38;73.68
53041;BME280;39326;42.650;23.248;2023-07-08T06:24:15;92963.25;;;18.63;73.24
53041;BME280;39326;42.650;23.248;2023-07-08T06:26:41;92960.03;;;18.52;73.69
53041;BME280;39326;42.650;23.248;2023-07-08T06:29:06;92963.81;;;18.54;73.89
53041;BME280;39326;42.650;23.248;2023-07-08T06:31:32;92965.69;;;18.57;74.22
53041;BME280;39326;42.650;23.248;2023-07-08T06:33:59;92956.56;;;18.51;72.52
53041;BME280;39326;42.650;23.248;2023-07-08T06:36:25;92957.41;;;18.32;71.21
53041;BME280;39326;42.650;23.248;2023-07-08T06:38:51;92960.34;;;18.54;71.69
53041;BME280;39326;42.650;23.248;2023-07-08T06:41:16;92942.88;;;18.75;71.35
53041;BME280;39326;42.650;23.248;2023-07-08T06:43:42;92948.59;;;18.93;70.77
53041;BME280;39326;42.650;23.248;2023-07-08T06:46:07;92945.56;;;18.91;70.79
53041;BME280;39326;42.650;23.248;2023-07-08T06:48:33;92945.66;;;18.87;71.33
53041;BME280;39326;42.650;23.248;2023-07-08T06:50:59;92949.59;;;18.99;72.01
53041;BME280;39326;42.650;23.248;2023-07-08T06:53:24;92952.81;;;18.94;71.82
53041;BME280;39326;42.650;23.248;2023-07-08T06:55:50;92944.63;;;18.98;71.98
53041;BME280;39326;42.650;23.248;2023-07-08T06:58:16;92952.22;;;19.03;71.88
53041;BME280;39326;42.650;23.248;2023-07-08T07:00:43;92950.41;;;19.12;71.42
53041;BME280;39326;42.650;23.248;2023-07-08T07:03:09;92960.56;;;19.08;70.51
53041;BME280;39326;42.650;23.248;2023-07-08T07:05:35;92957.94;;;19.05;71.37
53041;BME280;39326;42.650;23.248;2023-07-08T07:08:01;92958.13;;;18.98;71.50
53041;BME280;39326;42.650;23.248;2023-07-08T07:10:27;92959.41;;;18.93;72.20
53041;BME280;39326;42.650;23.248;2023-07-08T07:12:52;92952.91;;;18.90;72.33
53041;BME280;39326;42.650;23.248;2023-07-08T07:15:18;92968.81;;;18.72;72.72
53041;BME280;39326;42.650;23.248;2023-07-08T07:17:44;92974.88;;;18.60;72.85
53041;BME280;39326;42.650;23.248;2023-07-08T07:20:10;92980.56;;;18.65;73.00
53041;BME280;39326;42.650;23.248;2023-07-08T07:22:36;92983.84;;;18.73;72.51
53041;BME280;39326;42.650;23.248;2023-07-08T07:25:03;92974.66;;;18.71;72.52
53041;BME280;39326;42.650;23.248;2023-07-08T07:27:28;92989.56;;;18.59;72.71
53041;BME280;39326;42.650;23.248;2023-07-08T07:29:54;92988.72;;;18.62;73.25
53041;BME280;39326;42.650;23.248;2023-07-08T07:32:22;93008.16;;;18.57;72.63
53041;BME280;39326;42.650;23.248;2023-07-08T07:34:49;93003.81;;;18.43;72.61
53041;BME280;39326;42.650;23.248;2023-07-08T07:37:17;93002.19;;;18.65;72.93
53041;BME280;39326;42.650;23.248;2023-07-08T07:39:43;93012.81;;;18.73;72.39
53041;BME280;39326;42.650;23.248;2023-07-08T07:42:10;93008.91;;;18.74;70.24
53041;BME280;39326;42.650;23.248;2023-07-08T07:44:36;93008.34;;;18.82;69.75
53041;BME280;39326;42.650;23.248;2023-07-08T07:47:02;92997.94;;;18.97;68.97
53041;BME280;39326;42.650;23.248;2023-07-08T07:49:28;92998.91;;;19.19;68.26
53041;BME280;39326;42.650;23.248;2023-07-08T07:51:54;93001.13;;;19.37;68.13
53041;BME280;39326;42.650;23.248;2023-07-08T07:54:21;93001.88;;;19.38;67.80
53041;BME280;39326;42.650;23.248;2023-07-08T07:56:46;92999.84;;;19.42;68.01
53041;BME280;39326;42.650;23.248;2023-07-08T07:59:12;93003.38;;;19.55;67.60
53041;BME280;39326;42.650;23.248;2023-07-08T08:01:37;92997.25;;;19.67;67.25
53041;BME280;39326;42.650;23.248;2023-07-08T08:04:03;92988.81;;;19.65;66.03
53041;BME280;39326;42.650;23.248;2023-07-08T08:06:29;92997.75;;;19.50;65.95
53041;BME280;39326;42.650;23.248;2023-07-08T08:08:55;92999.00;;;19.45;66.07
53041;BME280;39326;42.650;23.248;2023-07-08T08:11:22;92991.22;;;19.47;65.39
53041;BME280;39326;42.650;23.248;2023-07-08T08:13:51;92989.03;;;19.58;64.83
53041;BME280;39326;42.650;23.248;2023-07-08T08:16:17;92988.47;;;19.63;65.70
53041;BME280;39326;42.650;23.248;2023-07-08T08:18:43;92992.50;;;19.71;64.96
53041;BME280;39326;42.650;23.248;2023-07-08T08:21:08;92989.94;;;19.93;64.85
53041;BME280;39326;42.650;23.248;2023-07-08T08:23:34;92991.44;;;19.94;65.13
53041;BME280;39326;42.650;23.248;2023-07-08T08:25:59;92996.34;;;19.99;64.50
53041;BME280;39326;42.650;23.248;2023-07-08T08:28:25;92996.13;;;20.19;65.62
53041;BME280;39326;42.650;23.248;2023-07-08T08:30:51;93008.59;;;20.17;63.88
53041;BME280;39326;42.650;23.248;2023-07-08T08:33:17;93007.31;;;20.21;64.21
53041;BME280;39326;42.650;23.248;2023-07-08T08:35:44;93001.19;;;20.34;63.55
53041;BME280;39326;42.650;23.248;2023-07-08T08:38:10;93005.06;;;20.58;63.43
53041;BME280;39326;42.650;23.248;2023-07-08T08:40:38;92990.94;;;20.76;61.63
53041;BME280;39326;42.650;23.248;2023-07-08T08:43:15;92982.63;;;21.05;60.95
53041;BME280;39326;42.650;23.248;2023-07-08T08:48:18;92987.44;;;21.35;59.54
53041;BME280;39326;42.650;23.248;2023-07-08T08:50:57;92976.16;;;21.59;58.48
53041;BME280;39326;42.650;23.248;2023-07-08T08:53:26;92994.66;;;21.73;59.45
53041;BME280;39326;42.650;23.248;2023-07-08T08:58:51;92995.84;;;21.72;56.99
53041;BME280;39326;42.650;23.248;2023-07-08T09:01:20;93002.63;;;21.89;58.57
53041;BME280;39326;42.650;23.248;2023-07-08T09:03:54;92996.91;;;22.19;56.68
53041;BME280;39326;42.650;23.248;2023-07-08T09:06:27;92993.03;;;22.60;57.42
53041;BME280;39326;42.650;23.248;2023-07-08T09:08:56;92985.44;;;23.04;57.86
53041;BME280;39326;42.650;23.248;2023-07-08T09:13:58;92986.97;;;22.56;54.90
53041;BME280;39326;42.650;23.248;2023-07-08T09:19:11;92987.59;;;22.69;54.42
53041;BME280;39326;42.650;23.248;2023-07-08T09:21:44;92981.94;;;23.04;54.23
53041;BME280;39326;42.650;23.248;2023-07-08T09:27:09;92983.06;;;23.43;52.20
53041;BME280;39326;42.650;23.248;2023-07-08T09:29:35;92976.84;;;23.61;51.62
53041;BME280;39326;42.650;23.248;2023-07-08T09:32:24;92971.97;;;23.92;52.05
53041;BME280;39326;42.650;23.248;2023-07-08T09:34:53;92982.72;;;23.87;50.43
53041;BME280;39326;42.650;23.248;2023-07-08T09:37:24;92964.28;;;23.72;50.54
53041;BME280;39326;42.650;23.248;2023-07-08T09:39:51;92962.13;;;23.86;50.67
53041;BME280;39326;42.650;23.248;2023-07-08T09:42:18;92956.81;;;24.10;49.98
53041;BME280;39326;42.650;23.248;2023-07-08T09:44:45;92956.16;;;24.15;49.57
53041;BME280;39326;42.650;23.248;2023-07-08T09:47:26;92954.25;;;24.39;49.83
53041;BME280;39326;42.650;23.248;2023-07-08T09:49:54;92958.28;;;24.62;49.79
53041;BME280;39326;42.650;23.248;2023-07-08T09:52:19;92944.06;;;24.49;48.93
53041;BME280;39326;42.650;23.248;2023-07-08T09:54:45;92951.09;;;24.32;49.58
53041;BME280;39326;42.650;23.248;2023-07-08T09:57:24;92954.66;;;24.47;49.92
53041;BME280;39326;42.650;23.248;2023-07-08T09:59:54;92948.72;;;24.67;47.53
53041;BME280;39326;42.650;23.248;2023-07-08T10:05:02;92951.94;;;24.47;48.55
53041;BME280;39326;42.650;23.248;2023-07-08T10:07:31;92955.19;;;24.69;48.12
53041;BME280;39326;42.650;23.248;2023-07-08T10:10:00;92952.31;;;24.73;47.56
53041;BME280;39326;42.650;23.248;2023-07-08T10:12:28;92949.13;;;24.74;46.08
53041;BME280;39326;42.650;23.248;2023-07-08T10:15:03;92949.06;;;24.83;46.46
53041;BME280;39326;42.650;23.248;2023-07-08T10:17:31;92953.16;;;24.46;47.29
53041;BME280;39326;42.650;23.248;2023-07-08T10:19:58;92936.63;;;24.49;47.68
53041;BME280;39326;42.650;23.248;2023-07-08T10:22:43;92941.22;;;24.76;47.15
53041;BME280;39326;42.650;23.248;2023-07-08T10:25:42;92932.22;;;24.85;47.73
53041;BME280;39326;42.650;23.248;2023-07-08T10:28:40;92930.47;;;24.97;47.22
53041;BME280;39326;42.650;23.248;2023-07-08T10:31:13;92926.56;;;24.65;47.32
53041;BME280;39326;42.650;23.248;2023-07-08T10:39:17;92914.88;;;24.73;48.71
53041;BME280;39326;42.650;23.248;2023-07-08T10:51:02;92906.25;;;24.90;44.66
53041;BME280;39326;42.650;23.248;2023-07-08T10:56:12;92905.78;;;24.91;45.64
53041;BME280;39326;42.650;23.248;2023-07-08T11:07:19;92902.91;;;25.09;46.72
53041;BME280;39326;42.650;23.248;2023-07-08T11:09:59;92904.41;;;25.34;44.00
53041;BME280;39326;42.650;23.248;2023-07-08T11:12:40;92903.97;;;25.51;43.06
53041;BME280;39326;42.650;23.248;2023-07-08T11:17:46;92892.19;;;25.59;43.65
53041;BME280;39326;42.650;23.248;2023-07-08T11:20:17;92892.59;;;25.97;44.54
53041;BME280;39326;42.650;23.248;2023-07-08T11:22:50;92890.03;;;26.08;42.71
53041;BME280;39326;42.650;23.248;2023-07-08T11:25:20;92885.38;;;26.29;43.91
53041;BME280;39326;42.650;23.248;2023-07-08T11:27:49;92889.97;;;26.37;43.62
53041;BME280;39326;42.650;23.248;2023-07-08T11:30:22;92891.66;;;26.50;42.32
53041;BME280;39326;42.650;23.248;2023-07-08T11:32:57;92888.41;;;26.31;41.77
53041;BME280;39326;42.650;23.248;2023-07-08T11:37:59;92888.03;;;25.79;42.93
53041;BME280;39326;42.650;23.248;2023-07-08T11:40:25;92888.19;;;25.99;43.63
53041;BME280;39326;42.650;23.248;2023-07-08T11:42:59;92885.31;;;25.79;42.32
53041;BME280;39326;42.650;23.248;2023-07-08T11:45:30;92892.03;;;25.93;41.49
53041;BME280;39326;42.650;23.248;2023-07-08T11:48:05;92901.44;;;25.77;40.60
53041;BME280;39326;42.650;23.248;2023-07-08T11:50:36;92891.91;;;26.16;41.58
53041;BME280;39326;42.650;23.248;2023-07-08T11:53:11;92893.13;;;26.30;41.24
53041;BME280;39326;42.650;23.248;2023-07-08T11:55:58;92895.06;;;26.45;42.26
53041;BME280;39326;42.650;23.248;2023-07-08T11:58:27;92891.78;;;26.76;41.20
53041;BME280;39326;42.650;23.248;2023-07-08T12:01:04;92898.59;;;26.65;40.28
53041;BME280;39326;42.650;23.248;2023-07-08T12:03:59;92899.97;;;26.40;41.69
53041;BME280;39326;42.650;23.248;2023-07-08T12:08:53;92890.28;;;26.75;42.29
53041;BME280;39326;42.650;23.248;2023-07-08T12:11:27;92888.00;;;26.93;40.35
53041;BME280;39326;42.650;23.248;2023-07-08T12:13:55;92892.53;;;26.96;39.79
53041;BME280;39326;42.650;23.248;2023-07-08T12:16:22;92895.19;;;26.91;40.18
53041;BME280;39326;42.650;23.248;2023-07-08T12:18:48;92897.66;;;26.68;39.88
53041;BME280;39326;42.650;23.248;2023-07-08T12:21:15;92898.69;;;26.21;40.48
53041;BME280;39326;42.650;23.248;2023-07-08T12:23:45;92895.53;;;25.93;39.83
53041;BME280;39326;42.650;23.248;2023-07-08T12:26:11;92891.16;;;25.72;41.37
53041;BME280;39326;42.650;23.248;2023-07-08T12:28:38;92890.78;;;25.79;40.93
53041;BME280;39326;42.650;23.248;2023-07-08T12:31:14;92887.19;;;26.17;42.78
53041;BME280;39326;42.650;23.248;2023-07-08T12:33:40;92899.44;;;26.36;40.62
53041;BME280;39326;42.650;23.248;2023-07-08T12:36:10;92896.06;;;26.47;40.62
53041;BME280;39326;42.650;23.248;2023-07-08T12:38:41;92888.22;;;26.69;39.95
53041;BME280;39326;42.650;23.248;2023-07-08T12:41:13;92890.09;;;26.28;40.53
53041;BME280;39326;42.650;23.248;2023-07-08T12:43:39;92895.09;;;26.30;40.36
53041;BME280;39326;42.650;23.248;2023-07-08T12:46:09;92891.47;;;26.38;41.27
53041;BME280;39326;42.650;23.248;2023-07-08T12:48:39;92887.13;;;26.61;40.81
53041;BME280;39326;42.650;23.248;2023-07-08T12:51:10;92884.00;;;26.19;40.08
53041;BME280;39326;42.650;23.248;2023-07-08T12:53:36;92886.19;;;25.70;40.59
53041;BME280;39326;42.650;23.248;2023-07-08T12:56:02;92883.28;;;25.20;42.17
53041;BME280;39326;42.650;23.248;2023-07-08T12:58:30;92890.22;;;25.06;42.64
53041;BME280;39326;42.650;23.248;2023-07-08T13:00:59;92894.47;;;25.22;44.06
53041;BME280;39326;42.650;23.248;2023-07-08T13:03:29;92889.72;;;25.32;42.03
53041;BME280;39326;42.650;23.248;2023-07-08T13:05:57;92897.66;;;25.30;42.31
53041;BME280;39326;42.650;23.248;2023-07-08T13:08:26;92893.69;;;25.31;43.49
53041;BME280;39326;42.650;23.248;2023-07-08T13:10:56;92892.59;;;24.90;42.70
53041;BME280;39326;42.650;23.248;2023-07-08T13:13:30;92889.38;;;24.76;44.27
53041;BME280;39326;42.650;23.248;2023-07-08T13:15:57;92890.94;;;24.68;43.92
53041;BME280;39326;42.650;23.248;2023-07-08T13:18:49;92900.25;;;24.62;44.76
53041;BME280;39326;42.650;23.248;2023-07-08T13:21:15;92882.88;;;24.74;43.95
53041;BME280;39326;42.650;23.248;2023-07-08T13:23:42;92898.94;;;24.72;43.92
53041;BME280;39326;42.650;23.248;2023-07-08T13:26:17;92894.94;;;24.82;44.23
53041;BME280;39326;42.650;23.248;2023-07-08T13:28:44;92898.16;;;24.80;43.60
53041;BME280;39326;42.650;23.248;2023-07-08T13:31:22;92883.44;;;24.78;42.70
53041;BME280;39326;42.650;23.248;2023-07-08T13:33:50;92888.56;;;24.61;44.03
53041;BME280;39326;42.650;23.248;2023-07-08T13:36:21;92890.44;;;24.79;44.09
53041;BME280;39326;42.650;23.248;2023-07-08T13:38:49;92886.47;;;25.19;44.32
53041;BME280;39326;42.650;23.248;2023-07-08T13:41:21;92885.53;;;25.22;42.14
53041;BME280;39326;42.650;23.248;2023-07-08T13:43:49;92899.44;;;25.48;41.67
53041;BME280;39326;42.650;23.248;2023-07-08T13:52:15;92870.81;;;26.02;40.42
53041;BME280;39326;42.650;23.248;2023-07-08T13:55:01;92884.53;;;26.23;41.45
53041;BME280;39326;42.650;23.248;2023-07-08T13:57:33;92883.69;;;26.66;41.11
53041;BME280;39326;42.650;23.248;2023-07-08T14:00:00;92882.09;;;26.25;40.71
53041;BME280;39326;42.650;23.248;2023-07-08T14:02:29;92888.09;;;26.29;41.88